Time;durP1;ratioP1;P1;durP2;ratioP2;P2;SDS_P1;SDS_P2;PMS_P1;PMS_P2;Temp;Humidity;BMP_temperature;BMP_pressure;BME280_temperature;BME280_humidity;BME280_pressure;Samples;Min_cycle;Max_cycle;Signal;HPM_P1;HPM_P2
2022/09/04 00:01:13;;;;;;;5.65;1.15;;;17.90;92.10;;;;;;5089194;28;20037;-78
2022/09/04 00:03:57;;;;;;;6.70;1.63;;;17.80;92.00;;;;;;5055363;28;20398;-78
2022/09/04 00:06:32;;;;;;;4.07;2.22;;;17.70;92.20;;;;;;5054910;28;20048;-79
2022/09/04 00:09:17;;;;;;;4.72;2.13;;;17.70;92.10;;;;;;5055191;28;20052;-79
2022/09/04 00:12:03;;;;;;;4.90;2.47;;;17.70;92.30;;;;;;5088537;28;20044;-79
2022/09/04 00:14:41;;;;;;;5.43;2.65;;;17.70;92.50;;;;;;5055327;28;20379;-79
2022/09/04 00:17:32;;;;;;;5.70;2.00;;;17.60;92.60;;;;;;5054876;28;20135;-78
2022/09/04 00:20:03;;;;;;;5.25;2.08;;;17.60;92.40;;;;;;5088739;28;20455;-78
2022/09/04 00:22:46;;;;;;;3.58;2.17;;;17.50;92.70;;;;;;5088576;28;20037;-78
2022/09/04 00:25:32;;;;;;;5.07;1.83;;;17.40;92.80;;;;;;5038072;28;20148;-78
2022/09/04 00:28:08;;;;;;;3.47;1.80;;;17.40;92.90;;;;;;5054398;28;20064;-78
2022/09/04 00:30:38;;;;;;;5.07;2.00;;;17.30;92.70;;;;;;5054376;28;20091;-79
2022/09/04 00:33:19;;;;;;;4.45;1.60;;;17.30;92.80;;;;;;5054764;28;20103;-79
2022/09/04 00:36:01;;;;;;;5.53;1.98;;;17.20;93.00;;;;;;5053923;28;20049;-79
2022/09/04 00:38:45;;;;;;;6.60;2.03;;;17.20;93.10;;;;;;5054748;28;20510;-79
2022/09/04 00:41:29;;;;;;;3.92;1.83;;;17.20;92.80;;;;;;5037760;28;20049;-78
2022/09/04 00:44:19;;;;;;;3.88;1.80;;;17.20;93.00;;;;;;5054308;28;20064;-78
2022/09/04 00:46:55;;;;;;;2.85;1.77;;;17.20;93.00;;;;;;5054295;28;20136;-80
2022/09/04 00:49:41;;;;;;;4.55;1.80;;;17.10;93.20;;;;;;5054816;28;20091;-79
2022/09/04 00:52:35;;;;;;;4.35;1.80;;;17.10;93.60;;;;;;5054158;28;20091;-79
2022/09/04 00:55:03;;;;;;;6.47;1.40;;;17.10;93.50;;;;;;5054127;28;20053;-79
2022/09/04 00:57:56;;;;;;;3.63;1.58;;;17.10;93.30;;;;;;5054445;28;20041;-78
2022/09/04 01:00:25;;;;;;;5.43;1.90;;;17.10;93.70;;;;;;5054287;28;20052;-78
2022/09/04 01:03:06;;;;;;;4.47;1.85;;;17.00;93.70;;;;;;5037753;28;20482;-78
2022/09/04 01:06:02;;;;;;;3.67;2.00;;;17.00;93.80;;;;;;5037806;28;20098;-78
2022/09/04 01:09:15;;;;;;;4.68;1.90;;;16.90;94.00;;;;;;5037513;28;20048;-78
2022/09/04 01:11:52;;;;;;;3.38;2.05;;;16.90;93.90;;;;;;5037157;28;20049;-79
2022/09/04 01:14:21;;;;;;;2.40;1.70;;;16.90;93.90;;;;;;5054013;28;20064;-79
2022/09/04 01:16:54;;;;;;;4.32;1.65;;;16.80;94.10;;;;;;5047074;28;20072;-79
2022/09/04 01:19:37;;;;;;;3.05;1.85;;;16.80;94.30;;;;;;5022998;28;20072;-79
2022/09/04 01:22:31;;;;;;;3.60;1.83;;;16.80;94.40;;;;;;5023404;28;20049;-79
2022/09/04 01:25:31;;;;;;;4.38;1.60;;;16.80;94.50;;;;;;5039960;28;20039;-79
2022/09/04 01:28:17;;;;;;;2.45;1.63;;;16.70;94.40;;;;;;5040260;28;20053;-79
2022/09/04 01:31:25;;;;;;;3.78;1.80;;;16.60;94.60;;;;;;5023621;28;20051;-79
2022/09/04 01:34:20;;;;;;;2.50;1.52;;;16.60;94.80;;;;;;5038432;28;20389;-79
2022/09/04 01:36:59;;;;;;;4.72;1.88;;;16.60;94.80;;;;;;4975315;28;20054;-79
2022/09/04 01:39:28;;;;;;;5.72;1.27;;;16.50;94.80;;;;;;5023120;28;20047;-80
2022/09/04 01:41:53;;;;;;;4.32;1.77;;;16.50;95.00;;;;;;5039592;28;20043;-79
2022/09/04 01:44:19;;;;;;;3.50;1.67;;;16.50;95.00;;;;;;5039503;28;20041;-79
2022/09/04 01:46:59;;;;;;;4.70;1.83;;;16.40;94.80;;;;;;5006705;28;20043;-79
2022/09/04 01:49:35;;;;;;;3.38;1.90;;;16.40;94.90;;;;;;5056418;28;20416;-79
2022/09/04 01:52:13;;;;;;;5.85;1.98;;;16.40;95.10;;;;;;5073145;28;20125;-79
2022/09/04 01:54:47;;;;;;;3.55;1.50;;;16.40;94.90;;;;;;5040382;28;20046;-79
2022/09/04 01:57:26;;;;;;;4.75;1.70;;;16.30;94.90;;;;;;5073360;28;20055;-79
2022/09/04 02:00:09;;;;;;;5.13;2.28;;;16.30;95.00;;;;;;5039007;28;20043;-79
2022/09/04 02:03:02;;;;;;;7.15;3.00;;;16.30;95.20;;;;;;5023104;28;20039;-79
2022/09/04 02:05:36;;;;;;;4.13;2.15;;;16.20;95.50;;;;;;5038841;28;20046;-79
2022/09/04 02:08:26;;;;;;;4.22;2.28;;;16.20;95.40;;;;;;5038766;28;20059;-79
2022/09/04 02:11:01;;;;;;;5.53;1.90;;;16.20;95.50;;;;;;5022764;28;20043;-79
2022/09/04 02:13:52;;;;;;;7.15;2.35;;;16.10;95.40;;;;;;5022522;28;20141;-79
2022/09/04 02:16:36;;;;;;;3.50;2.33;;;16.10;95.50;;;;;;5022395;28;20130;-79
2022/09/04 02:19:19;;;;;;;4.32;1.80;;;16.10;95.60;;;;;;5039033;28;20488;-79
2022/09/04 02:22:16;;;;;;;4.43;2.20;;;16.00;95.50;;;;;;5072634;28;20046;-79
2022/09/04 02:25:33;;;;;;;5.80;2.22;;;16.00;95.70;;;;;;5039572;28;20129;-79
2022/09/04 02:28:36;;;;;;;5.32;2.70;;;15.90;95.70;;;;;;5035406;28;20157;-79
2022/09/04 02:31:37;;;;;;;6.15;2.05;;;15.90;95.80;;;;;;5038743;28;20053;-80
2022/09/04 02:34:08;;;;;;;4.00;2.22;;;16.00;95.60;;;;;;5038917;28;20500;-80
2022/09/04 02:36:34;;;;;;;4.30;1.95;;;16.00;95.70;;;;;;5055106;28;20054;-80
2022/09/04 02:39:36;;;;;;;7.13;2.30;;;15.90;95.90;;;;;;5021723;28;20049;-77
2022/09/04 02:42:22;;;;;;;4.13;2.17;;;15.90;95.90;;;;;;5038910;28;20278;-78
2022/09/04 02:45:00;;;;;;;4.38;2.25;;;15.90;95.80;;;;;;5021846;28;20392;-79
2022/09/04 02:48:07;;;;;;;5.68;2.03;;;15.90;95.80;;;;;;5038223;28;20039;-79
2022/09/04 02:51:01;;;;;;;4.37;1.90;;;15.90;95.80;;;;;;5038527;28;20079;-78
2022/09/04 02:53:40;;;;;;;5.45;2.00;;;15.90;95.70;;;;;;5038403;28;20046;-78
2022/09/04 02:56:33;;;;;;;6.28;2.17;;;15.90;95.90;;;;;;5038473;28;20121;-78
2022/09/04 02:59:20;;;;;;;4.57;1.90;;;15.90;96.10;;;;;;5038688;28;20392;-79
2022/09/04 03:01:59;;;;;;;3.25;1.80;;;15.80;96.00;;;;;;5038392;28;20054;-79
2022/09/04 03:04:48;;;;;;;8.25;1.83;;;15.80;96.20;;;;;;5021204;28;20126;-79
2022/09/04 03:07:31;;;;;;;4.38;1.80;;;15.80;96.20;;;;;;5021657;28;20042;-79
2022/09/04 03:10:27;;;;;;;3.97;1.70;;;15.70;96.50;;;;;;5071464;28;20039;-79
2022/09/04 03:13:07;;;;;;;5.75;1.65;;;15.70;96.70;;;;;;5021898;28;20526;-79
2022/09/04 03:15:41;;;;;;;3.20;1.80;;;15.70;96.70;;;;;;5037894;28;20488;-79
2022/09/04 03:18:49;;;;;;;6.10;1.80;;;15.60;96.80;;;;;;5037560;28;20675;-78
2022/09/04 03:21:21;;;;;;;4.63;1.85;;;15.60;96.90;;;;;;5038051;28;20464;-78
2022/09/04 03:24:11;;;;;;;3.50;1.60;;;15.60;97.20;;;;;;5021472;28;20172;-78
2022/09/04 03:26:47;;;;;;;4.43;1.70;;;15.50;97.40;;;;;;5021286;28;20043;-78
2022/09/04 03:29:23;;;;;;;5.05;1.75;;;15.50;97.00;;;;;;5022016;28;20503;-79
2022/09/04 03:32:08;;;;;;;3.92;1.73;;;15.50;97.40;;;;;;5038369;28;20104;-79
2022/09/04 03:34:55;;;;;;;3.03;1.60;;;15.50;97.40;;;;;;5037744;28;20121;-78
2022/09/04 03:37:46;;;;;;;4.60;2.05;;;15.50;97.60;;;;;;5037784;28;20078;-78
2022/09/04 03:40:24;;;;;;;2.90;1.90;;;15.40;97.90;;;;;;5021391;28;20078;-78
2022/09/04 03:43:06;;;;;;;3.25;2.17;;;15.40;97.70;;;;;;5037903;28;20093;-78
2022/09/04 03:45:43;;;;;;;2.97;1.80;;;15.40;98.10;;;;;;5037817;28;20409;-78
2022/09/04 03:48:18;;;;;;;3.75;1.90;;;15.30;97.90;;;;;;5037618;28;20101;-78
2022/09/04 03:51:16;;;;;;;4.38;2.15;;;15.30;98.00;;;;;;5020945;28;20047;-79
2022/09/04 03:53:42;;;;;;;;;;;15.30;98.20;;;;;;5038446;28;20043;-78
2022/09/04 03:56:29;;;;;;;4.43;2.30;;;15.30;98.40;;;;;;5071473;28;19944;-78
2022/09/04 03:59:01;;;;;;;3.65;1.80;;;15.20;98.60;;;;;;5037885;28;20384;-78
2022/09/04 04:01:35;;;;;;;3.55;1.70;;;15.20;98.70;;;;;;5038274;28;20456;-78
2022/09/04 04:04:33;;;;;;;3.83;1.85;;;15.20;98.40;;;;;;5038131;28;20050;-78
2022/09/04 04:07:22;;;;;;;5.10;1.83;;;15.20;98.60;;;;;;5021169;28;20449;-79
2022/09/04 04:10:15;;;;;;;3.97;2.03;;;15.10;98.50;;;;;;5037677;28;20046;-79
2022/09/04 04:12:52;;;;;;;3.63;1.80;;;15.10;98.50;;;;;;5020993;28;20440;-79
2022/09/04 04:15:56;;;;;;;4.75;1.95;;;15.20;98.60;;;;;;5037452;28;20050;-79
2022/09/04 04:19:09;;;;;;;3.92;2.08;;;15.10;99.00;;;;;;5019887;28;20058;-79
2022/09/04 04:22:20;;;;;;;4.18;2.13;;;15.10;99.00;;;;;;5032357;28;20446;-78
2022/09/04 04:25:36;;;;;;;7.45;2.10;;;15.00;99.10;;;;;;5070719;28;20079;-79
2022/09/04 04:28:18;;;;;;;2.92;1.80;;;15.00;99.40;;;;;;5013923;28;20109;-79
2022/09/04 04:30:51;;;;;;;7.75;2.30;;;14.90;99.30;;;;;;5041395;28;20109;-79
2022/09/04 04:34:18;;;;;;;5.78;2.58;;;14.90;99.60;;;;;;5041530;28;20142;-79
2022/09/04 04:37:07;;;;;;;6.50;2.13;;;14.90;99.70;;;;;;4978285;28;20502;-80
2022/09/04 04:39:38;;;;;;;4.30;2.00;;;15.00;99.60;;;;;;5040926;28;20047;-79
2022/09/04 04:42:23;;;;;;;3.95;2.05;;;14.90;99.50;;;;;;5040889;28;20035;-79
2022/09/04 04:48:22;;;;;;;4.80;2.30;;;14.90;99.90;;;;;;5041204;28;20522;-79
2022/09/04 04:51:11;;;;;;;5.40;2.00;;;14.90;99.80;;;;;;5029146;28;20046;-79
2022/09/04 04:54:12;;;;;;;4.30;2.10;;;15.00;99.90;;;;;;5040466;28;20042;-79
2022/09/04 04:56:44;;;;;;;3.65;1.90;;;15.00;99.90;;;;;;5024176;28;20416;-77
2022/09/04 04:59:28;;;;;;;7.18;2.20;;;14.90;99.90;;;;;;5023923;28;20407;-78
2022/09/04 05:02:20;;;;;;;3.78;2.17;;;14.90;99.70;;;;;;5040246;28;20054;-78
2022/09/04 05:05:11;;;;;;;3.53;2.30;;;14.90;99.90;;;;;;5040260;28;20068;-78
2022/09/04 05:07:41;;;;;;;4.75;2.13;;;14.90;99.90;;;;;;5040591;28;20141;-79
2022/09/04 05:10:29;;;;;;;7.30;2.10;;;14.90;99.90;;;;;;5023517;28;20072;-79
2022/09/04 05:12:54;;;;;;;;;;;14.90;99.90;;;;;;5074904;28;20104;-79
2022/09/04 05:15:53;;;;;;;4.32;2.17;;;14.90;99.90;;;;;;5040269;28;19918;-79
2022/09/04 05:18:29;;;;;;;5.95;2.20;;;14.90;99.90;;;;;;5039823;28;20058;-79
2022/09/04 05:21:08;;;;;;;5.03;2.22;;;14.80;99.90;;;;;;5040683;28;20046;-79
2022/09/04 05:23:55;;;;;;;3.50;2.30;;;14.80;99.90;;;;;;5040217;28;20046;-79
2022/09/04 05:26:35;;;;;;;3.45;1.90;;;14.80;99.90;;;;;;5040023;28;20070;-79
2022/09/04 05:29:15;;;;;;;9.52;2.30;;;14.80;99.90;;;;;;5040632;28;20058;-79
2022/09/04 05:31:54;;;;;;;9.38;2.47;;;14.80;99.90;;;;;;5023671;28;20089;-79
2022/09/04 05:34:51;;;;;;;4.18;2.33;;;14.90;99.90;;;;;;5040088;28;20058;-79
2022/09/04 05:37:51;;;;;;;4.68;2.25;;;14.90;99.90;;;;;;5023748;28;20046;-79
2022/09/04 05:40:28;;;;;;;4.03;2.15;;;14.90;99.90;;;;;;5039986;28;20051;-80
2022/09/04 05:43:32;;;;;;;2.90;2.50;;;14.90;99.90;;;;;;5040183;28;20039;-79
2022/09/04 05:46:16;;;;;;;6.68;2.20;;;15.30;99.90;;;;;;5039285;28;20047;-79
2022/09/04 05:48:56;;;;;;;3.50;1.90;;;15.10;99.90;;;;;;5039635;28;20038;-80
2022/09/04 05:51:49;;;;;;;4.63;2.30;;;15.20;99.90;;;;;;5039870;28;20039;-79
2022/09/04 05:54:27;;;;;;;4.05;2.28;;;15.30;99.70;;;;;;5074117;28;20519;-79
2022/09/04 05:57:17;;;;;;;12.88;2.55;;;15.40;99.50;;;;;;5040078;28;20074;-79
2022/09/04 06:00:06;;;;;;;4.07;2.20;;;15.50;99.50;;;;;;5039980;28;20513;-79
2022/09/04 06:02:46;;;;;;;4.03;2.20;;;15.50;99.60;;;;;;5039734;28;20035;-79
2022/09/04 06:05:20;;;;;;;3.45;2.13;;;15.60;99.50;;;;;;5039467;28;20108;-79
2022/09/04 06:08:21;;;;;;;4.68;2.25;;;15.70;99.30;;;;;;5039109;28;20117;-79
2022/09/04 06:11:25;;;;;;;3.60;2.40;;;15.70;99.20;;;;;;4991327;28;20565;-80
2022/09/04 06:14:47;;;;;;;3.28;2.20;;;15.80;99.20;;;;;;5039159;28;20034;-80
2022/09/04 06:17:48;;;;;;;4.95;2.08;;;15.80;99.40;;;;;;4995566;28;20107;-79
2022/09/04 06:20:23;;;;;;;3.72;2.30;;;15.90;99.00;;;;;;4995867;28;20057;-80
2022/09/04 06:23:21;;;;;;;4.60;2.22;;;16.00;99.00;;;;;;5032606;28;20116;-79
2022/09/04 06:25:53;;;;;;;3.65;2.20;;;16.10;99.20;;;;;;5006461;28;20580;-79
2022/09/04 06:28:31;;;;;;;3.58;2.20;;;16.20;98.90;;;;;;5022716;28;20388;-80
2022/09/04 06:31:15;;;;;;;4.90;2.50;;;16.30;98.90;;;;;;5022532;28;20035;-80
2022/09/04 06:33:59;;;;;;;5.47;2.92;;;16.50;98.60;;;;;;5022211;28;20077;-79
2022/09/04 06:36:49;;;;;;;7.25;2.70;;;16.60;98.50;;;;;;5022412;28;20039;-79
2022/09/04 06:39:36;;;;;;;4.28;2.40;;;16.70;98.40;;;;;;5038701;28;20039;-79
2022/09/04 06:42:27;;;;;;;3.92;2.28;;;16.70;98.30;;;;;;5038832;28;20047;-78
2022/09/04 06:45:13;;;;;;;5.63;2.20;;;16.70;98.40;;;;;;5038457;28;20047;-79
2022/09/04 06:48:03;;;;;;;6.25;2.15;;;16.80;98.30;;;;;;5022194;28;20047;-79
2022/09/04 06:50:40;;;;;;;5.60;2.60;;;17.00;98.40;;;;;;5038050;28;20047;-80
2022/09/04 06:53:09;;;;;;;3.72;2.35;;;17.10;98.50;;;;;;5038498;28;20042;-80
2022/09/04 06:55:44;;;;;;;3.65;2.35;;;17.40;97.90;;;;;;5038951;28;20069;-81
2022/09/04 06:58:39;;;;;;;4.43;2.42;;;17.80;97.90;;;;;;5038612;28;20038;-80
2022/09/04 07:01:12;;;;;;;5.45;2.40;;;18.30;96.10;;;;;;5038719;28;20337;-79
2022/09/04 07:03:46;;;;;;;4.28;2.40;;;18.70;95.50;;;;;;5022037;28;20050;-79
2022/09/04 07:06:34;;;;;;;4.07;2.20;;;19.10;95.40;;;;;;5072317;28;20039;-79
2022/09/04 07:09:03;;;;;;;4.07;2.10;;;19.20;94.40;;;;;;5038658;28;20499;-79
2022/09/04 07:11:46;;;;;;;3.80;2.15;;;19.60;94.40;;;;;;5038621;28;20097;-79
2022/09/04 07:14:48;;;;;;;3.55;2.30;;;20.00;94.50;;;;;;5038127;28;20046;-79
2022/09/04 07:17:17;;;;;;;5.00;2.03;;;20.10;93.90;;;;;;4991350;28;20050;-79
2022/09/04 07:20:12;;;;;;;2.53;1.80;;;20.00;93.90;;;;;;5038047;28;20129;-79
2022/09/04 07:23:05;;;;;;;4.65;2.10;;;20.20;94.00;;;;;;5037532;28;20055;-79
2022/09/04 07:25:49;;;;;;;3.97;2.53;;;20.40;93.60;;;;;;5037848;28;20058;-79
2022/09/04 07:28:47;;;;;;;4.28;2.30;;;20.60;93.50;;;;;;5038172;28;20043;-79
2022/09/04 07:31:38;;;;;;;3.92;2.10;;;20.70;92.90;;;;;;5038278;28;20043;-79
2022/09/04 07:34:29;;;;;;;3.85;2.15;;;20.80;92.90;;;;;;5014634;28;20099;-79
2022/09/04 07:37:21;;;;;;;8.52;2.60;;;20.90;93.20;;;;;;5038320;28;20046;-79
2022/09/04 07:39:59;;;;;;;4.47;2.22;;;21.10;93.00;;;;;;5038043;28;20077;-80
2022/09/04 07:42:27;;;;;;;5.32;2.40;;;21.50;92.80;;;;;;5037888;28;20070;-80
2022/09/04 07:45:05;;;;;;;4.47;2.80;;;21.70;92.20;;;;;;5021482;28;20376;-80
2022/09/04 07:47:43;;;;;;;4.45;2.40;;;21.80;92.10;;;;;;5021716;28;20395;-80
2022/09/04 07:50:23;;;;;;;5.70;2.30;;;21.90;92.20;;;;;;5021135;28;20054;-80
2022/09/04 07:53:04;;;;;;;4.57;2.22;;;22.00;92.40;;;;;;5021359;28;20047;-80
2022/09/04 07:55:40;;;;;;;3.95;2.05;;;22.30;92.50;;;;;;5038108;28;20051;-80
2022/09/04 07:58:49;;;;;;;5.03;2.23;;;22.70;92.30;;;;;;5021063;28;20043;-80
2022/09/04 08:01:33;;;;;;;4.80;2.20;;;22.90;91.90;;;;;;5006671;28;20286;-81
2022/09/04 08:04:18;;;;;;;4.43;2.03;;;23.10;91.40;;;;;;5075409;28;20089;-80
2022/09/04 08:07:07;;;;;;;2.20;1.70;;;23.30;91.20;;;;;;5042233;28;20478;-80
2022/09/04 08:09:47;;;;;;;4.45;1.90;;;23.30;91.00;;;;;;5057673;28;20050;-80
2022/09/04 08:12:36;;;;;;;4.15;2.03;;;23.40;90.90;;;;;;5025015;28;20176;-80
2022/09/04 08:15:20;;;;;;;7.75;1.88;;;23.70;91.20;;;;;;5041506;28;20092;-80
2022/09/04 08:17:58;;;;;;;4.85;2.30;;;23.80;91.10;;;;;;5024781;28;20112;-81
2022/09/04 08:20:42;;;;;;;3.55;1.85;;;24.30;91.20;;;;;;5041381;28;20065;-80
2022/09/04 08:23:26;;;;;;;4.05;1.70;;;24.50;90.70;;;;;;5041230;28;20064;-81
2022/09/04 08:25:55;;;;;;;7.10;1.85;;;24.60;90.50;;;;;;5041385;28;20121;-81
2022/09/04 08:28:47;;;;;;;3.38;2.00;;;24.60;90.50;;;;;;5041524;28;20038;-81
2022/09/04 08:31:28;;;;;;;3.70;1.70;;;24.90;90.60;;;;;;5041244;28;20503;-81
2022/09/04 08:33:57;;;;;;;2.95;1.67;;;25.00;90.20;;;;;;5074527;28;20057;-81
2022/09/04 08:36:28;;;;;;;4.25;1.80;;;24.90;90.00;;;;;;5040768;28;20046;-81
2022/09/04 08:39:09;;;;;;;2.58;1.70;;;25.40;90.00;;;;;;5024439;28;20030;-81
2022/09/04 08:42:16;;;;;;;3.92;1.95;;;25.60;89.00;;;;;;5040925;28;20039;-80
2022/09/04 08:45:07;;;;;;;6.47;1.67;;;25.90;88.60;;;;;;5040949;28;20078;-80
2022/09/04 08:47:55;;;;;;;4.25;1.65;;;26.20;89.60;;;;;;5024234;28;20039;-81
2022/09/04 08:50:33;;;;;;;2.55;1.77;;;26.40;89.00;;;;;;5041150;28;20546;-81
2022/09/04 08:53:46;;;;;;;3.08;1.70;;;26.70;88.80;;;;;;5041313;28;20468;-81
2022/09/04 08:56:41;;;;;;;3.90;1.80;;;27.10;88.40;;;;;;5027760;28;20051;-81
2022/09/04 08:59:15;;;;;;;4.18;1.60;;;27.40;88.30;;;;;;5040523;28;20121;-81
2022/09/04 09:02:10;;;;;;;3.10;1.83;;;27.70;87.20;;;;;;5040687;28;20373;-81
2022/09/04 09:04:54;;;;;;;2.75;1.60;;;27.60;87.20;;;;;;5040534;28;20090;-80
2022/09/04 09:07:47;;;;;;;5.05;1.58;;;28.00;86.80;;;;;;5040388;28;20043;-79
2022/09/04 09:10:28;;;;;;;3.25;1.90;;;27.50;86.60;;;;;;5040203;28;20038;-81
2022/09/04 09:13:24;;;;;;;3.17;1.60;;;27.50;87.30;;;;;;5039355;28;20042;-81
2022/09/04 09:16:14;;;;;;;3.67;1.75;;;27.60;87.70;;;;;;5040054;28;20047;-81
2022/09/04 09:18:59;;;;;;;4.88;1.80;;;27.80;86.80;;;;;;5051291;28;20084;-80
2022/09/04 09:21:48;;;;;;;3.30;1.40;;;28.00;86.40;;;;;;5053752;28;20124;-80
2022/09/04 09:24:32;;;;;;;3.67;1.95;;;27.90;87.10;;;;;;5053336;28;20036;-81
2022/09/04 09:27:04;;;;;;;3.70;1.52;;;28.10;87.70;;;;;;5037071;28;20590;-80
2022/09/04 09:29:49;;;;;;;2.42;1.38;;;28.30;86.40;;;;;;5053257;28;20051;-80
2022/09/04 09:32:45;;;;;;;3.23;1.30;;;28.70;86.30;;;;;;5053039;28;20063;-80
2022/09/04 09:35:40;;;;;;;3.60;1.40;;;29.00;85.90;;;;;;5053385;28;20037;-80
2022/09/04 09:38:15;;;;;;;3.47;1.70;;;29.00;86.10;;;;;;5053192;28;20045;-81
2022/09/04 09:41:08;;;;;;;2.58;1.40;;;29.00;86.30;;;;;;5053352;28;20478;-81
2022/09/04 09:44:04;;;;;;;2.17;1.35;;;28.90;86.40;;;;;;5053355;28;20040;-80
2022/09/04 09:47:16;;;;;;;2.97;1.25;;;29.30;85.80;;;;;;5053029;28;20119;-80
2022/09/04 09:50:15;;;;;;;3.35;1.17;;;29.30;86.10;;;;;;5025358;28;20140;-80
2022/09/04 09:53:19;;;;;;;3.28;1.75;;;29.50;85.80;;;;;;5036706;28;20098;-81
2022/09/04 09:56:22;;;;;;;3.85;1.33;;;29.50;85.70;;;;;;5053330;28;20083;-81
2022/09/04 09:59:14;;;;;;;4.03;1.10;;;29.40;85.40;;;;;;5052982;28;20598;-81
2022/09/04 10:01:58;;;;;;;3.85;1.40;;;29.60;85.50;;;;;;5030183;28;20060;-80
2022/09/04 10:04:55;;;;;;;2.67;1.20;;;29.80;84.70;;;;;;5036553;28;20077;-81
2022/09/04 10:07:48;;;;;;;11.00;1.52;;;30.20;85.00;;;;;;5052685;28;20036;-81
2022/09/04 10:10:28;;;;;;;2.65;1.10;;;30.40;83.10;;;;;;5086241;28;20044;-81
2022/09/04 10:13:14;;;;;;;3.15;0.93;;;30.50;83.40;;;;;;5086513;28;20076;-81
2022/09/04 10:15:58;;;;;;;2.85;1.00;;;30.30;84.00;;;;;;5052364;28;20398;-81
2022/09/04 10:19:10;;;;;;;2.03;1.00;;;30.50;83.30;;;;;;5051630;28;20056;-81
2022/09/04 10:21:48;;;;;;;2.40;0.85;;;30.90;82.80;;;;;;5001043;28;20273;-80
2022/09/04 10:24:36;;;;;;;3.13;1.10;;;30.70;82.90;;;;;;5052445;28;20513;-81
2022/09/04 10:27:20;;;;;;;4.20;1.17;;;31.00;82.90;;;;;;5052126;28;20037;-82
2022/09/04 10:30:22;;;;;;;1.60;1.20;;;31.10;82.20;;;;;;5052475;28;20045;-81
2022/09/04 10:33:02;;;;;;;3.08;1.08;;;31.20;82.50;;;;;;5021589;28;20060;-81
2022/09/04 10:35:55;;;;;;;3.20;1.00;;;31.40;82.30;;;;;;5052626;28;20123;-81
2022/09/04 10:40:34;;;;;;;4.00;0.93;;;31.20;81.80;;;;;;5052251;28;20033;-81
2022/09/04 10:41:42;;;;;;;1.50;0.90;;;31.40;81.10;;;;;;5052376;28;20106;-81
2022/09/04 10:44:32;;;;;;;3.03;1.08;;;31.50;81.90;;;;;;5035512;28;20036;-80
2022/09/04 10:47:28;;;;;;;2.40;1.00;;;31.50;81.30;;;;;;5051437;28;20044;-81
2022/09/04 10:50:20;;;;;;;3.88;0.90;;;30.90;81.40;;;;;;5035558;28;20394;-81
2022/09/04 10:53:10;;;;;;;2.47;1.10;;;31.00;81.20;;;;;;5051844;28;20052;-82
2022/09/04 10:55:45;;;;;;;4.10;0.98;;;30.80;81.70;;;;;;5035276;28;20056;-82
2022/09/04 10:58:49;;;;;;;2.08;1.00;;;31.30;81.90;;;;;;5051616;28;20482;-82
2022/09/04 11:01:26;;;;;;;3.05;1.08;;;31.30;82.60;;;;;;5024435;28;20045;-82
2022/09/04 11:04:12;;;;;;;2.38;1.17;;;31.20;81.70;;;;;;5034329;28;20037;-82
2022/09/04 11:07:02;;;;;;;3.50;1.40;;;31.30;82.00;;;;;;5035296;28;20033;-82
2022/09/04 11:10:05;;;;;;;3.22;1.13;;;31.30;81.70;;;;;;5051496;28;20051;-82
2022/09/04 11:13:27;;;;;;;2.92;1.00;;;31.30;81.50;;;;;;5051920;28;20048;-81
2022/09/04 11:15:56;;;;;;;2.05;1.10;;;31.40;81.50;;;;;;4994417;28;20150;-82
2022/09/04 11:18:34;;;;;;;2.38;1.17;;;31.60;81.00;;;;;;4994095;28;20054;-81
2022/09/04 11:21:29;;;;;;;2.35;1.10;;;31.60;81.10;;;;;;5033307;28;20516;-81
2022/09/04 11:24:16;;;;;;;1.98;1.10;;;31.80;81.10;;;;;;5051965;28;20481;-81
2022/09/04 11:26:46;;;;;;;1.58;0.90;;;31.50;80.80;;;;;;5068169;28;20084;-81
2022/09/04 11:29:54;;;;;;;2.45;1.08;;;31.60;81.00;;;;;;5051412;28;20041;-82
2022/09/04 11:32:50;;;;;;;2.53;0.98;;;32.00;81.50;;;;;;4978524;28;20104;-81
2022/09/04 11:35:50;;;;;;;2.80;1.00;;;31.90;80.60;;;;;;5051582;28;20124;-82
2022/09/04 11:38:42;;;;;;;2.00;1.10;;;31.60;81.20;;;;;;5055405;28;20452;-82
2022/09/04 11:41:27;;;;;;;3.63;1.17;;;32.00;80.90;;;;;;5038511;28;20045;-81
2022/09/04 11:44:27;;;;;;;1.70;0.98;;;31.90;80.70;;;;;;5055700;28;20401;-82
2022/09/04 11:46:59;;;;;;;2.00;1.00;;;32.20;80.50;;;;;;5055433;28;20044;-82
2022/09/04 11:49:46;;;;;;;2.95;1.00;;;32.40;80.60;;;;;;5039356;28;20517;-80
2022/09/04 11:52:29;;;;;;;1.55;1.10;;;32.60;80.90;;;;;;5055317;28;20083;-82
2022/09/04 11:55:21;;;;;;;2.95;1.08;;;32.40;80.60;;;;;;5055864;28;20441;-83
2022/09/04 11:58:02;;;;;;;5.80;1.10;;;32.30;79.70;;;;;;5055068;28;20080;-81
2022/09/04 12:00:58;;;;;;;1.77;0.80;;;32.20;80.80;;;;;;5055157;28;20049;-82
2022/09/04 12:03:52;;;;;;;2.33;1.10;;;32.30;80.70;;;;;;5020979;28;20131;-82
2022/09/04 12:06:48;;;;;;;1.60;0.77;;;32.30;81.30;;;;;;5033536;28;20107;-82
2022/09/04 12:09:19;;;;;;;2.28;0.90;;;32.40;80.60;;;;;;5055102;28;20091;-82
2022/09/04 12:12:06;;;;;;;2.17;1.20;;;32.70;80.20;;;;;;5054974;28;20506;-82
2022/09/04 12:15:11;;;;;;;3.53;0.88;;;32.80;81.00;;;;;;5055112;28;20090;-82
2022/09/04 12:18:07;;;;;;;4.43;1.13;;;32.50;80.30;;;;;;5038487;28;20052;-82
2022/09/04 12:20:54;;;;;;;3.85;1.10;;;32.70;81.10;;;;;;5048638;28;20406;-82
2022/09/04 12:23:48;;;;;;;2.00;0.88;;;33.10;80.50;;;;;;5038295;28;20040;-82
2022/09/04 12:26:33;;;;;;;1.70;0.90;;;32.90;79.60;;;;;;5054932;28;20398;-82
2022/09/04 12:29:26;;;;;;;3.58;0.90;;;32.60;80.20;;;;;;5055202;28;20487;-82
2022/09/04 12:32:27;;;;;;;3.35;1.15;;;32.60;80.50;;;;;;5054900;28;20040;-82
2022/09/04 12:35:07;;;;;;;2.58;1.27;;;32.50;80.30;;;;;;5038630;28;20540;-81
2022/09/04 12:38:00;;;;;;;2.40;1.00;;;32.20;80.50;;;;;;5038172;28;20049;-82
2022/09/04 12:40:41;;;;;;;2.67;1.10;;;32.30;80.70;;;;;;5054737;28;20048;-82
2022/09/04 12:43:28;;;;;;;1.67;1.00;;;32.30;80.80;;;;;;5037661;28;20473;-81
2022/09/04 12:46:34;;;;;;;2.83;0.90;;;32.50;80.90;;;;;;5038171;28;20127;-82
2022/09/04 12:49:05;;;;;;;2.60;1.00;;;32.90;80.80;;;;;;5020609;28;20199;-82
2022/09/04 12:52:03;;;;;;;1.63;0.90;;;33.40;79.80;;;;;;5053854;28;20219;-82
2022/09/04 12:55:03;;;;;;;1.45;0.90;;;33.20;80.60;;;;;;4986837;28;20053;-82
2022/09/04 12:58:02;;;;;;;1.77;0.90;;;33.10;80.60;;;;;;5054665;28;20483;-82
2022/09/04 13:00:45;;;;;;;1.83;0.85;;;33.40;80.50;;;;;;5054076;28;20132;-82
2022/09/04 13:03:17;;;;;;;3.10;0.82;;;33.40;80.40;;;;;;5037709;28;20037;-82
2022/09/04 13:05:42;;;;;;;2.95;0.95;;;33.60;80.90;;;;;;5054137;28;20047;-82
2022/09/04 13:08:36;;;;;;;1.73;1.05;;;33.20;80.30;;;;;;5037499;28;20041;-82
2022/09/04 13:11:27;;;;;;;1.23;0.73;;;33.00;80.40;;;;;;5054179;28;20049;-81
2022/09/04 13:14:21;;;;;;;1.63;0.80;;;33.20;80.60;;;;;;5054217;28;20045;-82
2022/09/04 13:17:05;;;;;;;2.60;1.00;;;33.00;79.70;;;;;;5053986;28;20183;-81
2022/09/04 13:19:59;;;;;;;1.95;0.90;;;32.70;81.10;;;;;;5037373;28;20045;-82
2022/09/04 13:22:49;;;;;;;1.35;0.85;;;32.50;80.50;;;;;;5054008;28;20186;-82
2022/09/04 13:25:42;;;;;;;1.95;0.93;;;32.50;80.40;;;;;;5037593;28;20041;-82
2022/09/04 13:28:14;;;;;;;2.67;0.63;;;32.80;80.20;;;;;;5054656;28;20463;-82
2022/09/04 13:31:07;;;;;;;2.13;0.90;;;33.10;80.50;;;;;;5037180;28;20037;-82
2022/09/04 13:33:40;;;;;;;4.25;1.20;;;33.20;80.30;;;;;;5053731;28;20115;-82
2022/09/04 13:36:36;;;;;;;3.80;1.00;;;32.80;79.90;;;;;;5053520;28;20047;-82
2022/09/04 13:39:36;;;;;;;2.22;1.00;;;32.60;81.00;;;;;;5087194;28;20045;-82
2022/09/04 13:42:40;;;;;;;3.38;0.90;;;32.10;80.60;;;;;;5053662;28;20437;-82
2022/09/04 13:45:44;;;;;;;1.55;0.90;;;31.70;81.40;;;;;;5036845;28;20040;-83
2022/09/04 13:48:15;;;;;;;1.45;1.00;;;31.00;82.10;;;;;;5053372;28;20084;-82
2022/09/04 13:50:53;;;;;;;1.75;1.00;;;31.10;81.90;;;;;;5053649;28;20505;-82
2022/09/04 13:53:41;;;;;;;4.07;1.33;;;31.00;82.00;;;;;;5053178;28;20080;-82
2022/09/04 13:56:15;;;;;;;2.35;0.90;;;30.90;81.70;;;;;;5053630;28;20076;-82
2022/09/04 13:58:48;;;;;;;2.30;0.90;;;30.90;82.60;;;;;;5036546;28;20041;-83
2022/09/04 14:01:20;;;;;;;1.70;0.85;;;30.80;82.30;;;;;;5053668;28;20127;-82
2022/09/04 14:04:10;;;;;;;2.20;1.00;;;30.70;82.60;;;;;;5053190;28;20029;-82
2022/09/04 14:06:36;;;;;;;1.58;0.80;;;30.70;82.70;;;;;;5053067;28;20037;-83
2022/09/04 14:09:04;;;;;;;1.38;0.90;;;30.40;82.40;;;;;;5052894;28;20068;-83
2022/09/04 14:12:02;;;;;;;2.90;0.90;;;30.60;82.60;;;;;;5053199;28;20067;-82
2022/09/04 14:14:59;;;;;;;2.05;1.20;;;30.30;83.40;;;;;;5053046;28;20049;-82
2022/09/04 14:17:51;;;;;;;2.97;1.00;;;30.20;83.10;;;;;;5052482;28;20061;-83
2022/09/04 14:20:42;;;;;;;1.75;1.10;;;30.10;83.30;;;;;;5052218;28;20045;-82
2022/09/04 14:23:46;;;;;;;2.47;1.30;;;30.20;83.10;;;;;;5052495;28;20209;-82
2022/09/04 14:26:43;;;;;;;2.40;1.00;;;30.40;83.80;;;;;;5035822;28;20072;-82
2022/09/04 14:29:37;;;;;;;1.73;0.82;;;30.40;83.50;;;;;;5053018;28;20502;-82
2022/09/04 14:32:21;;;;;;;1.98;0.93;;;30.50;82.80;;;;;;5052733;28;20098;-83